Ellenton, Florida
Current Conditions -  °F | °C
As of 1:53 PM on Saturday 20 Dec 2014 (Local Time) from KSRQ Reporting Station
Clear Clear  
Wind Chill: 75°   Ceiling: Unl
Heat Index: 75°   Visibility: 10mi
Dew Point: 58°   Wind: 9mph
Humidity: 55%   Direction: 210°SSW
Pressure: 30.02"   Gusts: NA
Location:  27.52°N, 82.53°W
Report Text: KSRQ 201853Z 21008KT 10SM CLR 24/14 A3002 RMK AO2 SLP163 T02390144
Loading
Personal Weather Stations






























Interactive Weather Map New forecast layout! Learn more

10-Day Weather Forecast

Advertisements
Track Severe Weather on mobile